Time;durP1;ratioP1;P1;durP2;ratioP2;P2;SDS_P1;SDS_P2;PMS_P1;PMS_P2;Temp;Humidity;BMP_temperature;BMP_pressure;BME280_temperature;BME280_humidity;BME280_pressure;Samples;Min_cycle;Max_cycle;Signal;HPM_P1;HPM_P2
2022/04/29 00:01:23;;;;;;;6.15;3.90;;;;;;;12.39;56.27;100763.31;7685068;32;39011;-78
2022/04/29 00:05:40;;;;;;;6.68;4.10;;;;;;;12.27;56.97;100759.94;7684759;32;39984;-77
2022/04/29 00:09:57;;;;;;;7.25;4.12;;;;;;;12.38;56.73;100758.94;7684921;32;37604;-77
2022/04/29 00:14:13;;;;;;;9.25;4.20;;;;;;;12.02;57.95;100751.22;7684956;32;36766;-77
2022/04/29 00:18:29;;;;;;;7.10;4.40;;;;;;;11.63;58.96;100764.16;7684788;32;39099;-78
2022/04/29 00:22:45;;;;;;;9.70;4.43;;;;;;;11.88;58.04;100755.41;7684771;32;40274;-78
2022/04/29 00:27:02;;;;;;;6.12;3.95;;;;;;;12.10;57.31;100754.56;7684590;32;38674;-78
2022/04/29 00:31:18;;;;;;;6.68;3.90;;;;;;;11.90;57.76;100758.72;7684653;32;37254;-78
2022/04/29 00:35:34;;;;;;;6.32;4.12;;;;;;;11.70;58.19;100759.31;7683062;32;39425;-77
2022/04/29 00:39:50;;;;;;;6.72;4.03;;;;;;;12.03;57.39;100757.50;7684556;32;40878;-77
2022/04/29 00:44:09;;;;;;;7.45;4.10;;;;;;;11.90;57.86;100757.88;7684504;32;38670;-77
2022/04/29 00:48:25;;;;;;;7.28;4.20;;;;;;;11.71;59.03;100754.66;7683371;32;36049;-77
2022/04/29 00:52:44;;;;;;;8.63;4.45;;;;;;;11.61;59.06;100756.22;7684155;32;39109;-77
2022/04/29 00:57:02;;;;;;;11.00;4.50;;;;;;;11.68;58.81;100755.22;7684198;32;40803;-77
2022/04/29 01:01:20;;;;;;;7.07;4.22;;;;;;;11.70;58.86;100763.97;7682927;32;37918;-79
2022/04/29 01:05:38;;;;;;;6.62;3.95;;;;;;;11.57;59.38;100760.53;7683013;32;38187;-77
2022/04/29 01:09:55;;;;;;;4.82;3.35;;;;;;;11.72;59.01;100750.88;7682864;32;39095;-77
2022/04/29 01:14:11;;;;;;;7.18;4.32;;;;;;;11.73;58.68;100758.81;7683921;32;39837;-77
2022/04/29 01:18:28;;;;;;;6.82;4.28;;;;;;;11.67;58.78;100754.34;7683763;32;37960;-78
2022/04/29 01:22:44;;;;;;;7.22;3.80;;;;;;;11.48;58.60;100756.59;7683763;32;37044;-77
2022/04/29 01:27:00;;;;;;;7.30;4.35;;;;;;;11.50;58.61;100757.16;7683818;32;39472;-78
2022/04/29 01:31:17;;;;;;;7.53;4.28;;;;;;;11.28;59.53;100758.00;7683494;32;39994;-78
2022/04/29 01:35:33;;;;;;;9.68;4.03;;;;;;;11.27;59.82;100760.97;7683329;32;38564;-77
2022/04/29 01:39:49;;;;;;;8.68;4.15;;;;;;;11.36;59.74;100753.97;7683430;32;37801;-78
2022/04/29 01:44:05;;;;;;;8.50;4.15;;;;;;;11.49;59.54;100746.50;7683249;32;40061;-78
2022/04/29 01:48:22;;;;;;;7.47;3.75;;;;;;;11.37;59.76;100743.91;7683808;32;39881;-79
2022/04/29 01:52:38;;;;;;;9.20;4.30;;;;;;;11.14;60.59;100748.53;7686068;32;37908;-79
2022/04/29 01:56:54;;;;;;;6.87;4.20;;;;;;;11.18;60.70;100746.13;7686246;32;37286;-77
2022/04/29 02:01:10;;;;;;;8.50;3.85;;;;;;;11.18;59.85;100738.75;7686313;32;39407;-77
2022/04/29 02:05:26;;;;;;;6.35;4.32;;;;;;;11.09;59.58;100743.00;7686327;32;39945;-77
2022/04/29 02:09:43;;;;;;;9.48;5.00;;;;;;;11.39;58.70;100731.63;7686055;32;37639;-77
2022/04/29 02:13:59;;;;;;;8.45;5.18;;;;;;;11.43;58.49;100732.81;7686523;32;38136;-77
2022/04/29 02:18:16;;;;;;;10.48;4.50;;;;;;;11.48;58.71;100734.75;7686089;32;39395;-76
2022/04/29 02:22:32;;;;;;;11.35;5.35;;;;;;;11.32;59.08;100727.47;7686060;32;39934;-78
2022/04/29 02:26:48;;;;;;;11.88;5.30;;;;;;;11.24;59.70;100735.00;7685976;32;38038;-78
2022/04/29 02:31:04;;;;;;;7.00;4.78;;;;;;;10.99;60.16;100734.69;7685988;32;37368;-77
2022/04/29 02:35:21;;;;;;;9.88;4.93;;;;;;;11.11;59.98;100729.94;7684655;32;39096;-76
2022/04/29 02:39:37;;;;;;;10.02;5.22;;;;;;;10.87;60.64;100735.59;7686011;32;40526;-77
2022/04/29 02:43:54;;;;;;;9.85;4.85;;;;;;;11.15;59.14;100733.78;7685907;32;38206;-78
2022/04/29 02:48:10;;;;;;;9.25;5.00;;;;;;;11.28;58.35;100730.69;7685844;32;37112;-79
2022/04/29 02:52:26;;;;;;;8.93;5.05;;;;;;;11.33;57.92;100731.81;7685545;32;40219;-77
2022/04/29 02:56:42;;;;;;;6.35;4.10;;;;;;;11.33;57.50;100731.81;7685612;32;39906;-77
2022/04/29 03:00:59;;;;;;;8.20;5.20;;;;;;;10.99;58.24;100740.12;7685510;32;37949;-76
2022/04/29 03:05:15;;;;;;;8.30;4.30;;;;;;;10.98;58.19;100743.91;7685734;32;36778;-77
2022/04/29 03:09:31;;;;;;;13.38;4.90;;;;;;;10.76;58.60;100754.78;7685627;32;39835;-77
2022/04/29 03:13:47;;;;;;;8.02;5.00;;;;;;;10.81;58.74;100746.66;7685557;32;40335;-77
2022/04/29 03:18:20;;;;;;;7.95;4.32;;;;;;;10.47;59.67;100747.53;7685256;32;38818;-76
2022/04/29 03:22:37;;;;;;;8.18;4.03;;;;;;;10.76;58.60;100743.88;7685578;32;37100;-77
2022/04/29 03:26:53;;;;;;;10.45;4.68;;;;;;;10.74;58.58;100746.84;7685508;32;39039;-77
2022/04/29 03:31:09;;;;;;;9.18;4.62;;;;;;;10.49;58.42;100750.81;7685287;32;39971;-76
2022/04/29 03:35:26;;;;;;;8.10;4.60;;;;;;;10.35;59.65;100746.78;7685135;32;38319;-77
2022/04/29 03:39:42;;;;;;;6.95;4.28;;;;;;;10.60;58.63;100751.00;7685456;32;37117;-76
2022/04/29 03:43:59;;;;;;;7.28;4.47;;;;;;;10.23;59.19;100751.44;7685351;32;40002;-76
2022/04/29 03:48:15;;;;;;;8.27;4.62;;;;;;;10.06;60.02;100746.78;7685215;32;39599;-76
2022/04/29 03:52:31;;;;;;;7.75;4.28;;;;;;;10.34;59.19;100750.56;7684839;32;38456;-76
2022/04/29 03:56:47;;;;;;;6.75;4.22;;;;;;;10.02;60.17;100756.53;7685079;32;36846;-78
2022/04/29 04:01:03;;;;;;;8.25;4.90;;;;;;;10.08;59.67;100766.44;7684938;32;39751;-78
2022/04/29 04:05:20;;;;;;;7.15;4.40;;;;;;;10.29;58.79;100755.91;7684932;32;40832;-78
2022/04/29 04:09:36;;;;;;;7.90;4.60;;;;;;;10.31;58.96;100759.19;7684724;32;37944;-77
2022/04/29 04:13:52;;;;;;;7.12;4.87;;;;;;;10.14;59.87;100768.19;7684468;32;36985;-76
2022/04/29 04:18:09;;;;;;;8.18;4.90;;;;;;;10.18;59.67;100767.72;7684903;32;39974;-76
2022/04/29 04:22:27;;;;;;;9.25;5.05;;;;;;;10.06;60.16;100767.78;7684870;32;39645;-76
2022/04/29 04:26:43;;;;;;;7.97;4.70;;;;;;;10.14;59.39;100761.91;7684802;32;38996;-78
2022/04/29 04:30:59;;;;;;;7.50;4.65;;;;;;;9.82;60.67;100767.03;7684673;32;37172;-76
2022/04/29 04:35:16;;;;;;;10.13;4.20;;;;;;;10.07;59.87;100775.69;7684696;32;39307;-76
2022/04/29 04:39:32;;;;;;;9.32;4.82;;;;;;;9.88;60.11;100777.81;7684488;32;39957;-76
2022/04/29 04:43:49;;;;;;;8.27;4.32;;;;;;;10.01;59.75;100776.66;7684618;32;37573;-77
2022/04/29 04:48:06;;;;;;;7.30;4.62;;;;;;;10.18;59.72;100784.06;7684357;32;37796;-77
2022/04/29 04:52:22;;;;;;;12.30;4.62;;;;;;;10.33;59.54;100784.34;7684262;32;40019;-77
2022/04/29 04:56:39;;;;;;;7.85;4.47;;;;;;;10.18;60.62;100792.25;7684119;32;40834;-76
2022/04/29 05:00:55;;;;;;;10.38;4.85;;;;;;;10.21;60.91;100794.44;7684200;32;37688;-76
2022/04/29 05:05:12;;;;;;;8.70;4.50;;;;;;;10.33;60.49;100800.69;7684031;32;37293;-78
2022/04/29 05:09:28;;;;;;;9.43;4.72;;;;;;;10.40;60.40;100806.00;7684104;32;39344;-78
2022/04/29 05:13:44;;;;;;;8.82;4.40;;;;;;;10.30;61.31;100799.28;7683937;32;39961;-79
2022/04/29 05:18:00;;;;;;;11.43;4.90;;;;;;;10.39;61.30;100799.72;7683991;32;38685;-79
2022/04/29 05:22:16;;;;;;;8.85;5.22;;;;;;;10.39;61.84;100798.91;7683126;32;37958;-79
2022/04/29 05:26:33;;;;;;;8.98;5.43;;;;;;;10.53;62.06;100794.78;7683436;32;39354;-79
2022/04/29 05:30:49;;;;;;;14.13;4.80;;;;;;;10.46;62.42;100799.56;7683758;32;39676;-77
2022/04/29 05:35:06;;;;;;;9.35;5.07;;;;;;;10.71;62.97;100801.91;7683528;32;38798;-76
2022/04/29 05:43:58;;;;;;;11.60;5.45;;;;;;;11.10;58.98;100804.69;7683558;32;40098;-75
2022/04/29 05:48:14;;;;;;;10.23;4.72;;;;;;;11.48;58.73;100800.28;7683226;32;39964;-79
2022/04/29 05:52:30;;;;;;;9.55;5.45;;;;;;;11.69;56.99;100801.34;7682950;32;38192;-78
2022/04/29 05:56:47;;;;;;;8.45;5.25;;;;;;;11.65;57.59;100801.03;7683152;32;36826;-79
2022/04/29 06:01:05;;;;;;;9.02;4.90;;;;;;;11.68;56.85;100798.91;7683130;32;39084;-79
2022/04/29 06:05:21;;;;;;;12.93;4.60;;;;;;;12.18;55.99;100800.59;7682994;32;39739;-80
2022/04/29 06:09:37;;;;;;;8.65;4.62;;;;;;;12.27;55.01;100807.22;7681545;32;37627;-80
2022/04/29 06:13:53;;;;;;;9.05;4.70;;;;;;;12.39;54.92;100809.81;7682811;32;37332;-78
2022/04/29 06:18:10;;;;;;;7.82;4.30;;;;;;;12.61;54.51;100815.22;7682635;32;39260;-78
2022/04/29 06:22:26;;;;;;;8.32;4.50;;;;;;;12.83;54.46;100806.91;7682580;32;39990;-79
2022/04/29 06:26:42;;;;;;;13.98;4.72;;;;;;;13.40;54.15;100815.50;7698511;32;38660;-79
2022/04/29 06:30:58;;;;;;;8.45;4.85;;;;;;;13.00;55.86;100819.63;7707887;32;37822;-77
2022/04/29 06:35:18;;;;;;;9.90;5.53;;;;;;;13.33;54.96;100818.47;7709309;32;39271;-80
2022/04/29 06:39:35;;;;;;;11.15;5.35;;;;;;;13.20;54.78;100813.47;7711816;32;39656;-80
2022/04/29 06:43:52;;;;;;;13.82;5.03;;;;;;;13.25;55.08;100805.28;7711967;32;37728;-78
2022/04/29 06:48:08;;;;;;;12.43;5.70;;;;;;;13.82;53.14;100811.88;7711340;32;37991;-80
2022/04/29 06:52:25;;;;;;;9.57;4.90;;;;;;;14.01;52.44;100798.50;7711860;32;40235;-79
2022/04/29 06:56:41;;;;;;;8.85;4.75;;;;;;;14.52;51.28;100801.34;7711022;32;39895;-79
2022/04/29 07:00:59;;;;;;;8.93;5.07;;;;;;;13.79;52.22;100809.66;7711468;32;38661;-80
2022/04/29 07:05:16;;;;;;;11.68;5.07;;;;;;;13.98;51.62;100801.78;7711764;32;36878;-80
2022/04/29 07:09:32;;;;;;;10.40;5.47;;;;;;;13.95;51.17;100803.13;7711159;32;39976;-80
2022/04/29 07:14:08;;;;;;;9.45;5.57;;;;;;;14.25;50.39;100802.38;7711174;32;41214;-80
2022/04/29 07:18:24;;;;;;;8.45;5.57;;;;;;;14.82;49.10;100799.72;7711032;32;37631;-80
2022/04/29 07:22:41;;;;;;;10.13;5.65;;;;;;;14.52;49.59;100804.09;7711855;32;37164;-81
2022/04/29 07:26:57;;;;;;;11.30;5.75;;;;;;;14.23;49.65;100807.31;7711404;32;39154;-80
2022/04/29 07:31:14;;;;;;;11.10;5.15;;;;;;;14.82;48.67;100805.19;7711473;32;40025;-81
2022/04/29 07:44:43;;;;;;;9.85;5.30;;;;;;;15.42;46.31;100790.78;7711558;32;39317;-82
2022/04/29 07:48:59;;;;;;;8.23;4.97;;;;;;;15.86;46.05;100790.91;7710017;32;40479;-79
2022/04/29 07:53:15;;;;;;;9.52;4.53;;;;;;;16.23;43.63;100786.88;7711139;32;38587;-79
2022/04/29 07:57:31;;;;;;;8.02;4.22;;;;;;;15.93;43.01;100791.41;7711202;32;37215;-80
2022/04/29 08:01:52;;;;;;;9.90;4.30;;;;;;;15.82;41.76;100783.53;7711154;32;39911;-79
2022/04/29 08:06:09;;;;;;;9.45;4.37;;;;;;;16.67;41.94;100782.37;7711227;32;41154;-81
2022/04/29 08:10:29;;;;;;;7.55;3.67;;;;;;;16.62;39.28;100785.19;7709442;32;37962;-80
2022/04/29 08:14:45;;;;;;;8.35;3.53;;;;;;;17.10;38.84;100774.31;7709661;32;37010;-81
2022/04/29 08:19:14;;;;;;;7.37;4.03;;;;;;;17.54;37.46;100770.50;7710785;32;40133;-79
2022/04/29 08:23:30;;;;;;;6.70;3.37;;;;;;;17.12;37.85;100766.56;7710880;32;39843;-80
2022/04/29 08:27:47;;;;;;;9.77;3.60;;;;;;;17.86;35.90;100760.72;7710463;32;38036;-80
2022/04/29 08:32:04;;;;;;;6.43;3.50;;;;;;;18.31;36.14;100758.41;7709714;32;37188;-79
2022/04/29 08:36:20;;;;;;;9.13;3.55;;;;;;;18.33;34.43;100750.66;7711387;32;39367;-80
2022/04/29 08:40:41;;;;;;;5.70;3.20;;;;;;;18.38;33.87;100755.25;7711182;32;40149;-74
2022/04/29 08:44:58;;;;;;;6.07;3.10;;;;;;;18.48;32.08;100748.75;7710775;32;37950;-73
2022/04/29 08:49:15;;;;;;;5.62;3.08;;;;;;;18.75;30.22;100753.56;7709178;32;37828;-72
2022/04/29 08:53:34;;;;;;;3.92;2.60;;;;;;;18.65;30.64;100746.25;7710952;32;39408;-73
2022/04/29 09:02:26;;;;;;;6.45;3.17;;;;;;;18.45;31.65;100743.84;7707451;32;38388;-81
2022/04/29 09:06:49;;;;;;;7.72;3.35;;;;;;;18.85;33.83;100735.97;7707377;32;38184;-81
2022/04/29 09:11:06;;;;;;;6.55;2.55;;;;;;;19.19;34.51;100738.37;7708348;32;40109;-81
2022/04/29 09:15:23;;;;;;;5.53;2.58;;;;;;;19.14;32.93;100733.78;7710646;32;40877;-81
2022/04/29 09:19:40;;;;;;;5.75;3.10;;;;;;;19.37;33.12;100730.28;7710677;32;37884;-80
2022/04/29 09:24:05;;;;;;;5.97;2.78;;;;;;;19.27;34.34;100732.13;7710589;32;37109;-80
2022/04/29 09:28:23;;;;;;;5.53;3.17;;;;;;;19.61;32.87;100716.22;7710573;32;40102;-81
2022/04/29 09:32:49;;;;;;;5.15;2.97;;;;;;;19.41;33.39;100723.03;7710432;32;39772;-80
2022/04/29 09:37:17;;;;;;;7.05;3.17;;;;;;;19.61;33.41;100721.75;7710192;32;38036;-81
2022/04/29 09:41:35;;;;;;;6.55;3.00;;;;;;;19.71;31.95;100710.47;7709067;32;38126;-81
2022/04/29 09:45:51;;;;;;;4.78;2.92;;;;;;;19.88;33.09;100710.66;7710130;32;38354;-81
2022/04/29 09:50:08;;;;;;;6.18;3.50;;;;;;;20.06;32.10;100710.81;7710262;32;40893;-81
2022/04/29 09:54:25;;;;;;;5.72;2.58;;;;;;;20.61;30.12;100693.91;7709631;32;37869;-81
2022/04/29 09:58:43;;;;;;;7.07;2.85;;;;;;;21.37;29.24;100692.94;7709724;32;37067;-81
2022/04/29 10:03:03;;;;;;;4.55;2.70;;;;;;;21.62;27.09;100693.31;7709714;32;39000;-80
2022/04/29 10:07:22;;;;;;;10.35;3.05;;;;;;;21.59;24.64;100693.97;7709575;32;39941;-80
2022/04/29 10:11:39;;;;;;;3.85;2.72;;;;;;;21.56;24.25;100684.34;7711994;32;36863;-83
2022/04/29 10:15:56;;;;;;;4.10;2.67;;;;;;;21.43;24.42;100682.50;7711814;32;37126;-80
2022/04/29 10:24:53;;;;;;;5.78;2.30;;;;;;;21.62;22.89;100678.66;7711885;32;40677;-81
2022/04/29 10:29:09;;;;;;;4.20;2.45;;;;;;;21.24;25.36;100680.00;7712949;32;37692;-83
2022/04/29 10:33:26;;;;;;;6.55;2.80;;;;;;;21.71;24.00;100671.13;7711529;32;38003;-81
2022/04/29 10:37:42;;;;;;;5.40;2.80;;;;;;;20.41;24.56;100672.28;7712678;32;40027;-81
2022/04/29 10:42:11;;;;;;;6.37;2.50;;;;;;;20.97;25.25;100668.03;7712664;32;39905;-83
2022/04/29 10:46:45;;;;;;;4.68;2.65;;;;;;;21.19;24.92;100666.28;7712616;32;37576;-82
2022/04/29 10:51:15;;;;;;;4.80;2.62;;;;;;;21.23;23.86;100658.16;7712577;32;37107;-81
2022/04/29 10:55:31;;;;;;;6.50;2.65;;;;;;;22.12;23.52;100651.19;7712442;32;39820;-82
2022/04/29 11:00:00;;;;;;;4.25;2.72;;;;;;;22.78;28.63;100641.72;7711224;32;40874;-83
2022/04/29 11:04:16;;;;;;;4.05;2.78;;;;;;;23.13;21.37;100638.81;7712356;32;38900;-82
2022/04/29 11:08:32;;;;;;;6.20;2.97;;;;;;;22.44;24.23;100646.28;7712292;32;37359;-81
2022/04/29 11:13:03;;;;;;;6.03;2.75;;;;;;;22.95;22.18;100642.78;7712134;32;39242;-83
2022/04/29 11:17:33;;;;;;;7.87;2.97;;;;;;;22.73;22.12;100630.78;7712111;32;40288;-83
2022/04/29 11:26:32;;;;;;;8.57;2.53;;;;;;;23.32;23.28;100624.44;7712186;32;37842;-83
2022/04/29 11:30:57;;;;;;;5.53;3.12;;;;;;;23.41;21.12;100611.28;7712115;32;40171;-83
2022/04/29 11:35:14;;;;;;;7.55;3.05;;;;;;;22.30;22.02;100617.84;7712102;32;39913;-83
2022/04/29 11:39:34;;;;;;;3.30;2.33;;;;;;;21.94;24.64;100606.00;7711854;32;38013;-84
2022/04/29 11:43:51;;;;;;;4.78;2.80;;;;;;;22.37;24.67;100601.53;7710902;32;37130;-84
2022/04/29 11:48:08;;;;;;;6.65;3.00;;;;;;;22.87;22.69;100594.44;7711958;32;40131;-86
2022/04/29 11:52:30;;;;;;;7.62;2.95;;;;;;;23.14;21.08;100586.78;7711500;32;40515;-84
2022/04/29 11:56:46;;;;;;;6.53;2.80;;;;;;;22.05;22.31;100589.81;7711692;32;38016;-82
2022/04/29 12:01:04;;;;;;;7.87;2.70;;;;;;;22.56;23.73;100576.13;7711583;32;37121;-81
2022/04/29 12:05:24;;;;;;;3.22;2.17;;;;;;;23.67;23.43;100573.28;7711608;32;39437;-83
2022/04/29 12:09:40;;;;;;;5.65;2.50;;;;;;;23.75;21.17;100564.84;7711475;32;39927;-83
2022/04/29 12:14:30;;;;;;;6.25;2.53;;;;;;;24.22;21.23;100565.69;7711306;32;38601;-80
2022/04/29 12:18:47;;;;;;;3.85;2.62;;;;;;;24.59;21.55;100549.84;7685336;32;37022;-81
2022/04/29 12:23:19;;;;;;;6.68;2.47;;;;;;;24.76;18.89;100553.56;7711362;32;39302;-79
2022/04/29 12:27:37;;;;;;;5.28;2.58;;;;;;;24.73;18.94;100553.09;7710183;32;40797;-78
2022/04/29 12:36:31;;;;;;;5.55;2.58;;;;;;;24.87;19.83;100549.13;7711119;32;37079;-82
2022/04/29 12:40:47;;;;;;;5.03;2.17;;;;;;;24.83;18.81;100539.84;7711162;32;39236;-80
2022/04/29 12:45:11;;;;;;;4.12;2.50;;;;;;;24.44;19.90;100530.97;7709707;32;40009;-80
2022/04/29 12:49:28;;;;;;;4.80;2.72;;;;;;;24.49;20.08;100539.13;7709846;32;37951;-81
2022/04/29 12:53:45;;;;;;;4.40;2.42;;;;;;;25.86;19.72;100518.94;7710816;32;37446;-78
2022/04/29 12:58:18;;;;;;;3.55;2.35;;;;;;;24.87;19.37;100518.44;7710784;32;39933;-81
2022/04/29 13:02:34;;;;;;;7.43;2.80;;;;;;;24.47;19.52;100519.16;7710843;32;40236;-71
2022/04/29 13:06:51;;;;;;;3.65;2.15;;;;;;;24.60;18.65;100509.66;7710598;32;38496;-69
2022/04/29 13:11:07;;;;;;;7.50;2.75;;;;;;;24.88;19.98;100503.34;7711248;32;37869;-73
2022/04/29 13:15:23;;;;;;;4.37;2.40;;;;;;;24.41;21.76;100501.06;7709622;32;39077;-73
2022/04/29 13:19:39;;;;;;;4.95;2.87;;;;;;;24.97;18.16;100503.22;7710262;32;40026;-78
2022/04/29 13:23:56;;;;;;;4.97;2.40;;;;;;;24.09;19.38;100489.66;7710024;32;38635;-79
2022/04/29 13:28:13;;;;;;;4.10;2.50;;;;;;;24.41;19.14;100495.47;7710315;32;37370;-81
2022/04/29 13:32:29;;;;;;;4.35;2.35;;;;;;;24.80;18.55;100495.91;7709215;32;39873;-78
2022/04/29 13:36:45;;;;;;;4.60;2.30;;;;;;;24.42;18.07;100481.16;7710314;32;40671;-78
2022/04/29 13:41:02;;;;;;;4.68;2.35;;;;;;;24.97;18.44;100480.91;7710298;32;37922;-71
2022/04/29 13:45:18;;;;;;;4.97;2.92;;;;;;;25.02;18.49;100481.47;7711378;32;37858;-73
2022/04/29 13:49:34;;;;;;;3.55;2.33;;;;;;;24.00;20.24;100476.63;7713190;32;40118;-78
2022/04/29 13:53:51;;;;;;;5.95;2.60;;;;;;;24.69;19.93;100473.28;7708838;32;41078;-76
2022/04/29 13:58:08;;;;;;;4.90;2.72;;;;;;;25.15;18.30;100468.31;7708739;32;37993;-77
2022/04/29 14:02:25;;;;;;;12.27;3.10;;;;;;;24.83;19.96;100470.13;7712099;32;37854;-79
2022/04/29 14:06:42;;;;;;;5.40;2.75;;;;;;;24.81;19.02;100472.47;7711007;32;39403;-79
2022/04/29 14:10:58;;;;;;;3.55;2.37;;;;;;;24.41;19.28;100462.84;7712653;32;40727;-78
2022/04/29 14:15:15;;;;;;;4.05;2.30;;;;;;;23.63;19.17;100465.41;7712578;32;37941;-78
2022/04/29 14:19:31;;;;;;;4.55;2.50;;;;;;;25.03;21.29;100449.63;7712181;32;36773;-80
2022/04/29 14:23:47;;;;;;;3.72;2.22;;;;;;;24.74;17.96;100451.56;7712648;32;39814;-80
2022/04/29 14:28:03;;;;;;;6.22;2.67;;;;;;;24.33;18.07;100449.84;7712044;32;40570;-78
2022/04/29 14:32:21;;;;;;;4.78;2.33;;;;;;;24.38;18.58;100446.81;7711116;32;38671;-80
2022/04/29 14:36:37;;;;;;;4.00;2.33;;;;;;;23.98;19.32;100451.09;7711989;32;37655;-77
2022/04/29 14:40:54;;;;;;;7.40;2.53;;;;;;;23.25;20.48;100446.97;7712009;32;39370;-78
2022/04/29 14:45:11;;;;;;;3.37;2.35;;;;;;;23.44;20.35;100445.66;7712296;32;40813;-80
2022/04/29 14:49:27;;;;;;;13.40;2.90;;;;;;;23.15;21.18;100447.37;7711582;32;38118;-78
2022/04/29 14:53:44;;;;;;;7.35;2.40;;;;;;;23.41;20.90;100443.53;7710764;32;38139;-77
2022/04/29 14:58:00;;;;;;;5.97;2.20;;;;;;;23.44;20.01;100443.66;7710083;32;40010;-78
2022/04/29 15:02:16;;;;;;;5.25;2.78;;;;;;;23.75;18.65;100435.97;7711746;32;39917;-77
2022/04/29 15:06:32;;;;;;;4.65;2.50;;;;;;;23.83;19.99;100432.28;7711658;32;38337;-76
2022/04/29 15:15:35;;;;;;;4.75;2.60;;;;;;;23.35;19.86;100428.22;7710910;32;39426;-74
2022/04/29 15:19:53;;;;;;;4.93;2.45;;;;;;;22.69;19.55;100424.97;7710400;32;40038;-76
2022/04/29 15:24:09;;;;;;;4.00;2.45;;;;;;;22.94;19.55;100424.31;7710116;32;37930;-75
2022/04/29 15:28:26;;;;;;;6.20;2.28;;;;;;;23.13;19.38;100410.78;7711271;32;37030;-79
2022/04/29 15:32:42;;;;;;;6.68;2.60;;;;;;;22.77;19.83;100403.84;7711800;32;39300;-79
2022/04/29 15:37:00;;;;;;;4.43;2.80;;;;;;;22.84;20.63;100403.31;7710400;32;39932;-80
2022/04/29 15:41:16;;;;;;;5.87;2.58;;;;;;;22.93;20.85;100401.25;7711141;32;37900;-82
2022/04/29 15:45:32;;;;;;;6.53;2.35;;;;;;;22.55;23.11;100401.41;7711239;32;37179;-80
2022/04/29 15:49:50;;;;;;;4.28;2.35;;;;;;;22.59;21.76;100399.56;7711402;32;40074;-81
2022/04/29 15:54:06;;;;;;;4.03;2.40;;;;;;;22.48;21.96;100394.41;7711233;32;40865;-79
2022/04/29 15:58:22;;;;;;;8.45;2.62;;;;;;;22.41;23.07;100390.56;7710673;32;38095;-77
2022/04/29 16:02:38;;;;;;;6.07;2.80;;;;;;;22.13;26.09;100397.38;7710229;32;37153;-76
2022/04/29 16:06:55;;;;;;;5.22;2.50;;;;;;;22.01;26.77;100388.97;7709189;32;39117;-74
2022/04/29 16:11:12;;;;;;;6.10;2.72;;;;;;;22.11;25.79;100396.91;7709766;32;39905;-77
2022/04/29 16:15:28;;;;;;;7.60;3.00;;;;;;;21.92;25.68;100390.94;7710986;32;38030;-78
2022/04/29 16:28:55;;;;;;;5.22;2.55;;;;;;;22.25;23.92;100390.28;7711320;32;40407;-77
2022/04/29 16:33:15;;;;;;;14.45;3.15;;;;;;;22.71;22.61;100377.41;7709542;32;38696;-80
2022/04/29 16:37:31;;;;;;;6.82;2.55;;;;;;;22.62;23.50;100385.81;7710848;32;37136;-79
2022/04/29 16:41:48;;;;;;;4.05;2.65;;;;;;;22.63;23.15;100381.09;7710936;32;39975;-78
2022/04/29 16:46:05;;;;;;;9.18;2.97;;;;;;;22.35;23.32;100381.59;7710797;32;40097;-78
2022/04/29 16:50:21;;;;;;;7.15;2.50;;;;;;;22.52;23.37;100379.84;7705760;32;151323;-78
2022/04/29 16:54:37;;;;;;;5.43;3.12;;;;;;;22.77;23.44;100389.94;7709391;32;37965;-75
2022/04/29 16:58:57;;;;;;;5.87;3.33;;;;;;;23.14;21.48;100387.34;7710476;32;39545;-78
2022/04/29 17:03:13;;;;;;;6.75;3.10;;;;;;;24.30;21.71;100381.72;7710588;32;40658;-78
2022/04/29 17:07:30;;;;;;;10.52;3.30;;;;;;;25.37;19.74;100379.63;7709888;32;37955;-80
2022/04/29 17:11:46;;;;;;;5.12;2.90;;;;;;;24.66;19.24;100380.00;7710374;32;37854;-80
2022/04/29 17:16:02;;;;;;;5.15;2.97;;;;;;;23.80;20.51;100382.84;7710339;32;39330;-78
2022/04/29 17:20:19;;;;;;;4.80;3.03;;;;;;;22.91;22.38;100398.00;7710323;32;40831;-76
2022/04/29 17:24:36;;;;;;;4.97;2.83;;;;;;;22.49;22.14;100398.84;7709911;32;39139;-80
2022/04/29 17:28:54;;;;;;;6.28;3.30;;;;;;;22.16;23.52;100395.88;7708839;32;37468;-79
2022/04/29 17:33:13;;;;;;;8.98;4.15;;;;;;;22.00;24.93;100397.63;7710071;32;39364;-79
2022/04/29 17:37:29;;;;;;;14.55;4.75;;;;;;;21.60;26.79;100407.09;7709705;32;39742;-77
2022/04/29 17:46:20;;;;;;;8.85;3.70;;;;;;;20.73;29.53;100404.38;7709652;32;37271;-78
2022/04/29 17:50:37;;;;;;;7.53;4.00;;;;;;;20.40;29.87;100415.88;7709698;32;39397;-77
2022/04/29 17:54:53;;;;;;;10.05;4.60;;;;;;;20.24;28.84;100424.66;7709557;32;39987;-77
2022/04/29 17:59:09;;;;;;;8.45;4.60;;;;;;;19.72;30.53;100427.19;7708223;32;38019;-77
2022/04/29 18:03:27;;;;;;;7.43;4.30;;;;;;;19.69;30.39;100430.59;7709640;32;37030;-77
2022/04/29 18:07:44;;;;;;;6.87;3.55;;;;;;;19.28;30.93;100431.62;7709486;32;40099;-77
2022/04/29 18:12:02;;;;;;;8.80;3.80;;;;;;;19.08;31.73;100444.84;7707819;32;40089;-77
2022/04/29 18:16:19;;;;;;;12.80;3.60;;;;;;;18.95;32.30;100437.41;7707506;32;37576;-77
2022/04/29 18:20:39;;;;;;;14.27;4.00;;;;;;;18.98;32.86;100449.78;7707559;32;36946;-78
2022/04/29 18:24:56;;;;;;;7.03;3.85;;;;;;;18.29;34.67;100457.03;7706794;32;39786;-77
2022/04/29 18:29:12;;;;;;;7.00;3.42;;;;;;;18.08;34.55;100464.09;7708795;32;39970;-78
2022/04/29 18:33:28;;;;;;;7.85;3.55;;;;;;;18.13;33.34;100459.31;7712365;32;38064;-78
2022/04/29 18:37:46;;;;;;;6.00;3.62;;;;;;;18.10;32.63;100470.13;7711257;32;36704;-75
2022/04/29 18:42:03;;;;;;;7.25;4.03;;;;;;;17.79;33.19;100462.41;7712638;32;39265;-76
2022/04/29 18:46:19;;;;;;;9.90;4.82;;;;;;;17.75;33.54;100469.66;7712322;32;39628;-77
2022/04/29 18:50:35;;;;;;;9.20;4.90;;;;;;;17.56;33.24;100478.78;7712369;32;37838;-74
2022/04/29 18:54:51;;;;;;;7.78;3.80;;;;;;;17.26;35.00;100469.94;7712197;32;37742;-78
2022/04/29 18:59:08;;;;;;;8.57;4.60;;;;;;;17.16;35.17;100481.09;7712379;32;39140;-78
2022/04/29 19:03:24;;;;;;;8.05;4.57;;;;;;;17.36;34.38;100481.88;7712319;32;39899;-74
2022/04/29 19:07:40;;;;;;;8.30;3.50;;;;;;;17.20;34.82;100481.31;7696127;32;36333;-77
2022/04/29 19:11:56;;;;;;;9.70;3.67;;;;;;;17.00;35.11;100482.44;7693258;32;37520;-76
2022/04/29 19:16:15;;;;;;;6.25;3.75;;;;;;;16.55;36.83;100492.94;7685322;32;39337;-76
2022/04/29 19:20:31;;;;;;;8.85;3.90;;;;;;;16.49;36.73;100484.75;7698594;32;41757;-76
2022/04/29 19:24:47;;;;;;;6.03;4.10;;;;;;;16.51;36.58;100496.28;7706651;32;37730;-76
2022/04/29 19:29:09;;;;;;;7.62;4.12;;;;;;;16.41;36.95;100499.16;7711967;32;37784;-76
2022/04/29 19:33:26;;;;;;;9.00;4.00;;;;;;;16.56;34.74;100494.56;7696362;32;39403;-76
2022/04/29 19:37:43;;;;;;;6.55;4.45;;;;;;;16.00;37.42;100505.09;7693364;32;40003;-75
2022/04/29 19:42:00;;;;;;;7.22;4.07;;;;;;;15.83;38.56;100504.72;7689724;32;38556;-75
2022/04/29 19:46:16;;;;;;;9.60;5.18;;;;;;;15.68;39.91;100498.25;7691048;32;37000;-76
2022/04/29 19:50:32;;;;;;;28.60;7.05;;;;;;;15.70;39.41;100498.75;7696977;32;39423;-77
2022/04/29 19:54:49;;;;;;;9.23;3.90;;;;;;;15.43;39.76;100507.50;7684795;32;39907;-76
2022/04/29 19:59:10;;;;;;;9.15;4.70;;;;;;;15.55;38.49;100499.72;7685188;32;37639;-77
2022/04/29 20:08:15;;;;;;;13.93;5.15;;;;;;;15.52;39.16;100499.47;7681615;32;39207;-75
2022/04/29 20:12:31;;;;;;;5.80;3.90;;;;;;;15.36;40.18;100507.81;7683724;32;39976;-75
2022/04/29 20:16:48;;;;;;;12.27;4.75;;;;;;;15.25;41.10;100506.28;7684881;32;38742;-75
2022/04/29 20:21:04;;;;;;;8.18;4.18;;;;;;;15.02;41.95;100508.63;7684712;32;37892;-75
2022/04/29 20:25:20;;;;;;;13.60;4.53;;;;;;;15.25;41.15;100510.97;7684928;32;39290;-75
2022/04/29 20:29:37;;;;;;;10.77;4.60;;;;;;;14.89;42.69;100509.25;7684220;32;39762;-76
2022/04/29 20:33:53;;;;;;;9.88;5.05;;;;;;;15.00;42.72;100505.34;7683883;32;38498;-75
2022/04/29 20:38:09;;;;;;;7.10;4.15;;;;;;;14.51;44.05;100502.56;7684488;32;38074;-76
2022/04/29 20:47:00;;;;;;;7.30;4.25;;;;;;;14.52;42.89;100518.75;7709188;32;39988;-75
2022/04/29 20:51:16;;;;;;;6.90;3.78;;;;;;;14.40;42.84;100512.72;7711029;32;38046;-76
2022/04/29 20:55:32;;;;;;;7.60;4.60;;;;;;;14.46;42.08;100517.09;7710357;32;37169;-77